Ana Sayfa
METAR-TAF:

METAR-TAF

Havaalanları :

Sakız Adası, Yunanistan

Enlem: 38-20N, Boylam: 026-08E, yükseklik: 5 m

Güncel hava durumu gözlemi

Rapor saat 13:50 UTC de 44 dakika önce yapıldı.
Rüzgar kuzey/kuzeydoğudan 10 kt
Sıcaklık 15°C
Nem 67%
Basınç 1009 hPa
Görüş mesafesi 10 km veya daha fazla
2000 ft yükseklikte parçalı bulutlu

METAR: LGHI 231350Z 02010KT 9999 SCT020 15/09 Q1009

Saat: 16:34 (14:34 UTC)

Tahmin

Rapor saat 11:00 UTC de 3 saat ve 34 dakika önce yapıldı.
Ayın 23'si saat 12 UTC'den ayın 23'si saat 21 UTC'ye kadar geçerli Tahmin
Rüzgar kuzey/kuzeydoğudan 12 kt
Görüş mesafesi 10 km veya daha fazla
1800 ft yükseklikte az bulutlu
2000 ft yükseklikte parçalı bulutlu

TAF: LGHI 231100Z 2312/2321 02012KT 9999 FEW018 SCT020

4.000'den fazla havaalanı için hava durumu gözlemleri ve tahminleri (METAR ve TAF raporları).

Kullanılabilir istasyonlar harita üzerinde sarı ve kırmızı noktalarla gösterilir.

İstasyonun adını görmek için fareyi noktanın üzerinde gezdirin.

Sonrasında hava gözlem ve tahminlerini görmek için tıklayın.

Haritayı değiştirmek için: yaklaştırmak için siyah artı işaretli yeşil düğmeye ve uzaklaştırmak için de eksi işaretli düğmeye hızla tıklayın; bitişik haritalar için yeşil okları kullanın.


METAR-TAF: